Friday, July 01, 2016
04:26 UTC
  |  Log In   |  Register Free
Airport Search:

Southwest Georgia Regional Airport
(KABY)

FAA data valid effective May 26 2016 - Jul 21 2016 (unless otherwise noted).

 
 
 
 
 
 
 
 
 
 
 
 
 
 
Current Aviation Weather for KABY

Weather Summary


The most recent METAR observation for ABY was updated at: 12:53 UTC
METAR for KABY is not available. Closest METAR is for KMGR
KABY  (most recent observation was updatred at 10:35 UTC)
010353Z AUTO 16004KT 10SM CLR 25/23 A3003 RMK AO2 SLP166 T02500228

KMGR  (33.7 nm NW)   (most recent observation was updated at 10:41 UTC)
010414Z AUTO 16004KT 10SM CLR 24/23 A3003 RMK AO2

KACJ  (34.5 nm SW)   (most recent observation was updated at 10:41 UTC)
010415Z AUTO 20005KT 10SM CLR 24/24 A3003 RMK AO2

TAF for KABY is not available.
KABY
302320Z 0100/0124 19004KT P6SM SCT040 BKN100 FM011600 21005KT P6SM BKN040

GlobalAir.com is loading additional information.
 Current Weather at ABY
78.0 F° (25.6 C°)

South winds at 8.1 mph
Pressure:
30.03 in
Humidity:
85%
Wind:
South at 8.1 mph
Dew Point:
73.0 F° (22.8 C°)
Visibility:
9.00 mi
ABY NOAA Radar




Find All Airport Services Find A Hotel Find A Rental Car Find A Golf Course Find A Restaurant $100 Hamburger



Airport Weather Forecast for KABY

Translated METAR for KABY (0353 UTC)
METAR:
KABY 010353Z AUTO 16004KT 10SM CLR 25/23 A3003 RMK AO2 SLP166 T02500228
Conditions at:
KABY (Southwest Georgia Rgnl, GA) observed 0353 UTC 01 July 2016
Temperature:
25°C (77°F)
Dewpoint:
23°C (73.4°F) [RH = 88.7]
Pressure:
30.03 inches Hg (1016.9 mb)
pressure at sea level is 166 in Hg
Winds:
from the SSE (160 degrees) at 4.6 mph (4 knots: 2.1 m/s)
Visibility:
10 mile(s)
Ceiling:
at least 12,000 feet AGL
Clouds:
Clear below 12,000 feet AGL
Remarks:
site is un-manned
site is automated and HAS a precipitation sensor

Translated TAF for KABY (Southwest Georgia Rgnl, GA) (2320 UTC)
TAF text:
KABY 302320Z 0100/0124 19004KT P6SM SCT040 BKN100
Forecast period:
Friday Jul 01 2016 00:00 UTC - Friday Jul 01 2016 24:00 UTC
Forecast type:
FROM: standard forecast or significant change
Winds:
from the S (190 degrees) at 4.6 mph (4 knots: 2.1 m/s)
Visibility:
6 or more mile(s) (9.7+ km)
Ceiling:
10,000 feet AGL
Clouds:
Scattered Clouds at 4,000 feet AGL
Broken Cloud Cover at 10,000 feet AGL
Weather:
no significant weather observed at this time
TAF text:
FM011600 21005KT P6SM BKN040
Forecast period:
Friday Jul 01 2016 16:00 UTC - Friday Jul 01 2016 24:00 UTC
Forecast type:
FROM: standard forecast or significant change
Winds:
from the SSW (210 degrees) at 5.8 mph (5 knots: 2.6 m/s)
Visibility:
6 or more mile(s) (9.7+ km)
Ceiling:
4,000 feet AGL
Clouds:
Broken Cloud Cover at 4,000 feet AGL
Weather:
no significant weather observed at this time
FBO's on the Field
FBO Company Facility Photos Services Transportation Aviation Fuel Prices: Prices include tax
Catering Weather Repair Courtesy Rental Type 100LL JetA JetA+ MOGAS 8087
 
Eagles of America, Inc. - ABY

Currently rated 5 by 1 person
FS:Epic
Last Updated: Jun-01
Login to update fuel prices
SS:
Contact Eagles of America, Inc. - ABYMore FBO Information
 
Add another FBO Facility Photos Catering Weather Repair Courtesy Rental Type 100LL JetA JetA+ MOGAS 8087
Services Transportation Aviation Fuel Prices: Prices include tax


model-print
model-print
model-print
model-print